sensor_id;sensor_type;location;lat;lon;timestamp;temperature;humidity
23769;DHT22;12064;50.890;5.424;2022-09-12T00:05:14;27.60;67.90
23769;DHT22;12064;50.890;5.424;2022-09-12T00:14:05;27.50;67.80
23769;DHT22;12064;50.890;5.424;2022-09-12T00:22:56;27.50;67.70
23769;DHT22;12064;50.890;5.424;2022-09-12T00:31:50;27.50;67.80
23769;DHT22;12064;50.890;5.424;2022-09-12T00:40:41;27.60;67.50
23769;DHT22;12064;50.890;5.424;2022-09-12T00:49:47;27.50;67.50
23769;DHT22;12064;50.890;5.424;2022-09-12T00:58:44;27.60;67.50
23769;DHT22;12064;50.890;5.424;2022-09-12T01:07:38;27.50;67.40
23769;DHT22;12064;50.890;5.424;2022-09-12T01:16:29;27.50;67.40
23769;DHT22;12064;50.890;5.424;2022-09-12T01:25:46;27.50;
23769;DHT22;12064;50.890;5.424;2022-09-12T01:35:02;27.20;67.60
23769;DHT22;12064;50.890;5.424;2022-09-12T01:44:03;27.30;67.40
23769;DHT22;12064;50.890;5.424;2022-09-12T01:53:05;27.40;67.40
23769;DHT22;12064;50.890;5.424;2022-09-12T02:02:04;27.30;67.20
23769;DHT22;12064;50.890;5.424;2022-09-12T02:11:06;27.40;66.80
23769;DHT22;12064;50.890;5.424;2022-09-12T02:20:13;27.20;67.10
23769;DHT22;12064;50.890;5.424;2022-09-12T02:29:08;27.20;66.90
23769;DHT22;12064;50.890;5.424;2022-09-12T02:38:29;27.40;66.70
23769;DHT22;12064;50.890;5.424;2022-09-12T02:48:04;27.30;66.70
23769;DHT22;12064;50.890;5.424;2022-09-12T02:56:47;27.30;66.50
23769;DHT22;12064;50.890;5.424;2022-09-12T03:06:05;27.40;66.30
23769;DHT22;12064;50.890;5.424;2022-09-12T03:15:25;27.00;67.00
23769;DHT22;12064;50.890;5.424;2022-09-12T03:24:31;27.00;66.90
23769;DHT22;12064;50.890;5.424;2022-09-12T03:33:24;26.90;67.10
23769;DHT22;12064;50.890;5.424;2022-09-12T03:42:15;27.10;66.60
23769;DHT22;12064;50.890;5.424;2022-09-12T03:51:08;27.00;66.60
23769;DHT22;12064;50.890;5.424;2022-09-12T04:00:37;27.30;66.10
23769;DHT22;12064;50.890;5.424;2022-09-12T04:09:28;27.00;66.20
23769;DHT22;12064;50.890;5.424;2022-09-12T04:18:18;27.00;66.10
23769;DHT22;12064;50.890;5.424;2022-09-12T04:27:09;27.20;65.70
23769;DHT22;12064;50.890;5.424;2022-09-12T04:36:10;27.40;65.20
23769;DHT22;12064;50.890;5.424;2022-09-12T04:45:04;27.20;65.50
23769;DHT22;12064;50.890;5.424;2022-09-12T04:54:26;27.40;65.10
23769;DHT22;12064;50.890;5.424;2022-09-12T05:03:29;27.40;66.00
23769;DHT22;12064;50.890;5.424;2022-09-12T05:12:23;27.70;66.00
23769;DHT22;12064;50.890;5.424;2022-09-12T05:21:19;27.90;66.60
23769;DHT22;12064;50.890;5.424;2022-09-12T05:30:11;28.00;67.00
23769;DHT22;12064;50.890;5.424;2022-09-12T05:39:03;28.30;66.30
23769;DHT22;12064;50.890;5.424;2022-09-12T05:47:54;28.20;66.40
23769;DHT22;12064;50.890;5.424;2022-09-12T05:56:45;27.70;67.60
23769;DHT22;12064;50.890;5.424;2022-09-12T06:05:46;28.20;65.90
23769;DHT22;12064;50.890;5.424;2022-09-12T06:14:37;28.10;66.20
23769;DHT22;12064;50.890;5.424;2022-09-12T06:23:30;28.10;66.20
23769;DHT22;12064;50.890;5.424;2022-09-12T06:32:21;28.10;66.00
23769;DHT22;12064;50.890;5.424;2022-09-12T06:41:12;27.90;66.30
23769;DHT22;12064;50.890;5.424;2022-09-12T06:50:04;28.20;65.50
23769;DHT22;12064;50.890;5.424;2022-09-12T06:58:58;28.30;65.40
23769;DHT22;12064;50.890;5.424;2022-09-12T07:07:48;28.30;65.90
23769;DHT22;12064;50.890;5.424;2022-09-12T07:16:39;28.40;65.90
23769;DHT22;12064;50.890;5.424;2022-09-12T07:25:30;28.00;64.90
23769;DHT22;12064;50.890;5.424;2022-09-12T07:34:56;28.10;64.60
23769;DHT22;12064;50.890;5.424;2022-09-12T07:43:48;27.80;64.40
23769;DHT22;12064;50.890;5.424;2022-09-12T07:52:57;27.80;64.80
23769;DHT22;12064;50.890;5.424;2022-09-12T08:01:47;27.80;64.70
23769;DHT22;12064;50.890;5.424;2022-09-12T08:10:41;27.90;65.50
23769;DHT22;12064;50.890;5.424;2022-09-12T08:19:34;27.90;64.70
23769;DHT22;12064;50.890;5.424;2022-09-12T08:28:32;27.80;64.90
23769;DHT22;12064;50.890;5.424;2022-09-12T08:37:23;27.80;65.00
23769;DHT22;12064;50.890;5.424;2022-09-12T08:46:18;27.80;65.30
23769;DHT22;12064;50.890;5.424;2022-09-12T08:55:42;27.70;65.40
23769;DHT22;12064;50.890;5.424;2022-09-12T09:32:17;27.70;67.10
23769;DHT22;12064;50.890;5.424;2022-09-12T10:09:31;28.00;65.00
23769;DHT22;12064;50.890;5.424;2022-09-12T10:18:37;27.90;65.10
23769;DHT22;12064;50.890;5.424;2022-09-12T10:27:30;27.90;65.20
23769;DHT22;12064;50.890;5.424;2022-09-12T10:36:22;28.00;65.00
23769;DHT22;12064;50.890;5.424;2022-09-12T10:45:26;28.00;65.80
23769;DHT22;12064;50.890;5.424;2022-09-12T10:54:21;28.00;65.10
23769;DHT22;12064;50.890;5.424;2022-09-12T11:40:05;27.90;65.60
23769;DHT22;12064;50.890;5.424;2022-09-12T11:58:59;27.80;65.60
23769;DHT22;12064;50.890;5.424;2022-09-12T12:07:57;28.00;65.40
23769;DHT22;12064;50.890;5.424;2022-09-12T12:16:49;28.00;65.20
23769;DHT22;12064;50.890;5.424;2022-09-12T12:25:54;28.10;65.20
23769;DHT22;12064;50.890;5.424;2022-09-12T12:34:46;28.00;65.30
23769;DHT22;12064;50.890;5.424;2022-09-12T12:43:36;28.10;65.00
23769;DHT22;12064;50.890;5.424;2022-09-12T12:52:32;28.00;65.10
23769;DHT22;12064;50.890;5.424;2022-09-12T13:01:31;28.10;65.90
23769;DHT22;12064;50.890;5.424;2022-09-12T13:10:30;28.20;65.00
23769;DHT22;12064;50.890;5.424;2022-09-12T13:19:27;28.20;64.90
23769;DHT22;12064;50.890;5.424;2022-09-12T13:28:18;28.10;64.80
23769;DHT22;12064;50.890;5.424;2022-09-12T13:46:34;28.00;65.30
23769;DHT22;12064;50.890;5.424;2022-09-12T13:55:36;28.10;64.60
23769;DHT22;12064;50.890;5.424;2022-09-12T14:04:28;27.80;65.10
23769;DHT22;12064;50.890;5.424;2022-09-12T14:13:38;28.10;64.60
23769;DHT22;12064;50.890;5.424;2022-09-12T14:22:29;28.10;64.50
23769;DHT22;12064;50.890;5.424;2022-09-12T14:31:23;28.10;64.30
23769;DHT22;12064;50.890;5.424;2022-09-12T14:40:45;28.20;64.20
23769;DHT22;12064;50.890;5.424;2022-09-12T14:49:45;28.10;64.50
23769;DHT22;12064;50.890;5.424;2022-09-12T14:58:36;28.10;64.10
23769;DHT22;12064;50.890;5.424;2022-09-12T15:16:26;28.00;64.10
23769;DHT22;12064;50.890;5.424;2022-09-12T15:25:20;28.00;64.00
23769;DHT22;12064;50.890;5.424;2022-09-12T15:34:10;28.10;64.00
23769;DHT22;12064;50.890;5.424;2022-09-12T15:43:01;28.20;64.00
23769;DHT22;12064;50.890;5.424;2022-09-12T15:51:52;28.30;64.00
23769;DHT22;12064;50.890;5.424;2022-09-12T16:00:46;28.20;64.00
23769;DHT22;12064;50.890;5.424;2022-09-12T16:09:45;28.20;64.00
23769;DHT22;12064;50.890;5.424;2022-09-12T16:18:39;28.30;63.90
23769;DHT22;12064;50.890;5.424;2022-09-12T16:27:34;28.30;63.90
23769;DHT22;12064;50.890;5.424;2022-09-12T16:36:24;28.40;64.10
23769;DHT22;12064;50.890;5.424;2022-09-12T16:45:15;28.30;64.10
23769;DHT22;12064;50.890;5.424;2022-09-12T16:54:06;28.30;64.10
23769;DHT22;12064;50.890;5.424;2022-09-12T17:03:00;28.30;64.30
23769;DHT22;12064;50.890;5.424;2022-09-12T17:11:54;28.20;64.30
23769;DHT22;12064;50.890;5.424;2022-09-12T17:20:44;28.20;64.30
23769;DHT22;12064;50.890;5.424;2022-09-12T17:29:35;28.30;64.40
23769;DHT22;12064;50.890;5.424;2022-09-12T17:38:31;28.20;64.60
23769;DHT22;12064;50.890;5.424;2022-09-12T17:47:23;28.10;64.90
23769;DHT22;12064;50.890;5.424;2022-09-12T17:56:17;28.10;64.90
23769;DHT22;12064;50.890;5.424;2022-09-12T18:05:08;28.10;65.10
23769;DHT22;12064;50.890;5.424;2022-09-12T18:14:11;28.10;65.30
23769;DHT22;12064;50.890;5.424;2022-09-12T18:23:02;28.10;65.30
23769;DHT22;12064;50.890;5.424;2022-09-12T18:31:58;28.10;65.40
23769;DHT22;12064;50.890;5.424;2022-09-12T18:40:48;28.20;65.60
23769;DHT22;12064;50.890;5.424;2022-09-12T18:49:39;28.30;65.70
23769;DHT22;12064;50.890;5.424;2022-09-12T18:58:29;28.10;66.40
23769;DHT22;12064;50.890;5.424;2022-09-12T19:07:20;27.60;69.40
23769;DHT22;12064;50.890;5.424;2022-09-12T19:16:14;28.10;68.40
23769;DHT22;12064;50.890;5.424;2022-09-12T19:25:05;28.00;69.00
23769;DHT22;12064;50.890;5.424;2022-09-12T19:34:00;28.50;68.10
23769;DHT22;12064;50.890;5.424;2022-09-12T19:42:51;28.70;68.10
23769;DHT22;12064;50.890;5.424;2022-09-12T19:51:44;28.70;67.70
23769;DHT22;12064;50.890;5.424;2022-09-12T20:00:35;28.70;68.40
23769;DHT22;12064;50.890;5.424;2022-09-12T20:09:27;28.80;68.30
23769;DHT22;12064;50.890;5.424;2022-09-12T20:18:33;28.90;68.20
23769;DHT22;12064;50.890;5.424;2022-09-12T20:27:52;28.60;69.10
23769;DHT22;12064;50.890;5.424;2022-09-12T20:36:45;28.70;69.00
23769;DHT22;12064;50.890;5.424;2022-09-12T20:45:39;29.00;68.70
23769;DHT22;12064;50.890;5.424;2022-09-12T20:54:30;29.10;68.70
23769;DHT22;12064;50.890;5.424;2022-09-12T21:03:46;29.10;68.80
23769;DHT22;12064;50.890;5.424;2022-09-12T21:12:37;28.90;67.90
23769;DHT22;12064;50.890;5.424;2022-09-12T21:21:49;28.80;68.10
23769;DHT22;12064;50.890;5.424;2022-09-12T21:30:40;28.60;68.80
23769;DHT22;12064;50.890;5.424;2022-09-12T21:39:37;29.10;67.80
23769;DHT22;12064;50.890;5.424;2022-09-12T21:48:43;29.10;66.80
23769;DHT22;12064;50.890;5.424;2022-09-12T21:57:34;28.80;67.50
23769;DHT22;12064;50.890;5.424;2022-09-12T22:06:27;28.70;67.40
23769;DHT22;12064;50.890;5.424;2022-09-12T22:15:18;28.60;67.80
23769;DHT22;12064;50.890;5.424;2022-09-12T22:24:11;28.50;67.80
23769;DHT22;12064;50.890;5.424;2022-09-12T22:33:16;28.40;67.80
23769;DHT22;12064;50.890;5.424;2022-09-12T22:42:10;28.40;67.90
23769;DHT22;12064;50.890;5.424;2022-09-12T22:51:01;28.30;68.40
23769;DHT22;12064;50.890;5.424;2022-09-12T22:59:55;28.20;68.30
23769;DHT22;12064;50.890;5.424;2022-09-12T23:08:46;28.30;68.50
23769;DHT22;12064;50.890;5.424;2022-09-12T23:17:36;28.20;68.40
23769;DHT22;12064;50.890;5.424;2022-09-12T23:26:27;28.00;68.60
23769;DHT22;12064;50.890;5.424;2022-09-12T23:35:19;28.00;68.60
23769;DHT22;12064;50.890;5.424;2022-09-12T23:44:12;28.00;68.90
23769;DHT22;12064;50.890;5.424;2022-09-12T23:53:03;28.00;68.70
